createdAt,value
2022-08-28T00:02:15.634Z,21.02
2022-08-28T00:05:10.501Z,21.00
2022-08-28T00:07:53.483Z,20.97
2022-08-28T00:10:44.239Z,20.90
2022-08-28T00:13:39.466Z,20.79
2022-08-28T00:16:39.206Z,20.74
2022-08-28T00:19:41.963Z,20.68
2022-08-28T00:22:38.878Z,20.64
2022-08-28T00:25:30.842Z,20.62
2022-08-28T00:28:39.678Z,20.58
2022-08-28T00:31:13.502Z,20.55
2022-08-28T00:33:51.582Z,20.52
2022-08-28T00:36:31.219Z,20.48
2022-08-28T00:39:26.180Z,20.46
2022-08-28T00:42:20.678Z,20.43
2022-08-28T00:44:57.978Z,20.42
2022-08-28T00:47:51.449Z,20.40
2022-08-28T00:51:00.813Z,20.37
2022-08-28T00:53:35.744Z,20.35
2022-08-28T00:56:15.312Z,20.34
2022-08-28T00:58:57.639Z,20.33
2022-08-28T01:01:32.515Z,20.26
2022-08-28T01:04:41.961Z,20.19
2022-08-28T01:07:20.095Z,20.15
2022-08-28T01:10:11.286Z,20.16
2022-08-28T01:13:10.508Z,20.15
2022-08-28T01:16:12.685Z,20.12
2022-08-28T01:19:08.822Z,20.09
2022-08-28T01:22:10.981Z,20.06
2022-08-28T01:24:54.207Z,20.03
2022-08-28T01:27:30.164Z,20.01
2022-08-28T01:30:25.038Z,19.98
2022-08-28T01:33:12.535Z,19.94
2022-08-28T01:36:07.773Z,19.91
2022-08-28T01:38:49.085Z,19.83
2022-08-28T01:41:37.398Z,19.75
2022-08-28T01:44:11.003Z,19.72
2022-08-28T01:47:19.867Z,19.70
2022-08-28T01:49:51.760Z,19.72
2022-08-28T01:52:36.440Z,19.70
2022-08-28T01:55:22.239Z,19.67
2022-08-28T01:58:14.324Z,19.67
2022-08-28T02:00:57.633Z,19.69
2022-08-28T02:03:49.325Z,19.68
2022-08-28T02:06:30.609Z,19.67
2022-08-28T02:09:03.022Z,19.66
2022-08-28T02:11:37.299Z,19.66
2022-08-28T02:14:39.395Z,19.65
2022-08-28T02:17:12.269Z,19.67
2022-08-28T02:19:41.141Z,19.70
2022-08-28T02:22:47.510Z,19.74
2022-08-28T02:25:34.299Z,19.73
2022-08-28T02:28:31.468Z,19.71
2022-08-28T02:31:20.360Z,19.66
2022-08-28T02:34:06.052Z,19.64
2022-08-28T02:36:50.126Z,19.63
2022-08-28T02:39:22.160Z,19.62
2022-08-28T02:42:31.570Z,19.60
2022-08-28T02:45:11.859Z,19.62
2022-08-28T02:47:57.205Z,19.63
2022-08-28T02:50:26.095Z,19.63
2022-08-28T02:52:58.468Z,19.66
2022-08-28T02:56:16.716Z,19.67
2022-08-28T02:58:52.975Z,19.68
2022-08-28T03:01:24.367Z,19.68
2022-08-28T03:03:56.496Z,19.70
2022-08-28T03:06:27.742Z,19.72
2022-08-28T03:09:09.697Z,19.74
2022-08-28T03:11:56.530Z,19.75
2022-08-28T03:14:34.861Z,19.78
2022-08-28T03:17:26.488Z,19.79
2022-08-28T03:20:21.618Z,19.82
2022-08-28T03:23:20.295Z,19.81
2022-08-28T03:26:24.319Z,19.83
2022-08-28T03:29:16.367Z,19.86
2022-08-28T03:32:08.462Z,19.92
2022-08-28T03:34:37.560Z,19.97
2022-08-28T03:37:06.339Z,20.02
2022-08-28T03:39:37.673Z,20.06
2022-08-28T03:42:06.583Z,20.09
2022-08-28T03:44:38.415Z,20.09
2022-08-28T03:47:07.439Z,20.07
2022-08-28T03:49:36.342Z,20.05
2022-08-28T03:52:21.354Z,20.03
2022-08-28T03:55:00.281Z,20.01
2022-08-28T03:57:47.196Z,20.01
2022-08-28T04:00:16.639Z,19.99
2022-08-28T04:03:09.196Z,19.98
2022-08-28T04:05:53.127Z,19.98
2022-08-28T04:08:50.352Z,19.96
2022-08-28T04:11:30.419Z,19.95
2022-08-28T04:14:31.889Z,19.95
2022-08-28T04:17:07.687Z,19.98
2022-08-28T04:19:38.812Z,20.01
2022-08-28T04:22:14.956Z,20.05
2022-08-28T04:24:50.185Z,20.08
2022-08-28T04:27:27.983Z,20.06
2022-08-28T04:30:11.952Z,20.10
2022-08-28T04:32:59.763Z,20.12
2022-08-28T04:35:49.542Z,20.12
2022-08-28T04:38:22.223Z,20.13
2022-08-28T04:41:18.173Z,20.13
2022-08-28T04:43:52.977Z,20.16
2022-08-28T04:46:32.963Z,20.15
2022-08-28T04:49:52.751Z,20.15
2022-08-28T04:52:39.880Z,20.21
2022-08-28T04:55:12.535Z,20.25
2022-08-28T04:57:47.334Z,20.27
2022-08-28T05:00:35.528Z,20.28
2022-08-28T05:03:14.200Z,20.31
2022-08-28T05:05:58.046Z,20.36
2022-08-28T05:08:38.464Z,20.40
2022-08-28T05:11:34.395Z,20.44
2022-08-28T05:14:23.764Z,20.52
2022-08-28T05:17:22.647Z,20.58
2022-08-28T05:19:59.697Z,20.68
2022-08-28T05:22:39.989Z,20.76
2022-08-28T05:25:20.359Z,20.82
2022-08-28T05:27:52.048Z,20.87
2022-08-28T05:30:29.400Z,20.93
2022-08-28T05:33:05.422Z,20.98
2022-08-28T05:35:41.656Z,21.02
2022-08-28T05:38:36.346Z,21.10
2022-08-28T05:41:30.532Z,21.19
2022-08-28T05:44:06.265Z,21.29
2022-08-28T05:46:58.595Z,21.36
2022-08-28T05:49:33.560Z,21.47
2022-08-28T05:52:12.284Z,21.55
2022-08-28T05:54:48.238Z,21.65
2022-08-28T05:57:17.823Z,21.74
2022-08-28T05:59:53.904Z,21.84
2022-08-28T06:02:29.143Z,21.93
2022-08-28T06:05:03.871Z,22.03
2022-08-28T06:07:41.672Z,22.13
2022-08-28T06:10:19.698Z,22.21
2022-08-28T06:12:58.610Z,22.28
2022-08-28T06:15:33.764Z,22.35
2022-08-28T06:18:05.855Z,22.41
2022-08-28T06:20:45.752Z,22.48
2022-08-28T06:23:24.141Z,22.57
2022-08-28T06:26:04.464Z,22.66
2022-08-28T06:28:39.047Z,22.75
2022-08-28T06:31:23.620Z,22.84
2022-08-28T06:34:35.056Z,22.92
2022-08-28T06:37:08.082Z,23.00
2022-08-28T06:39:39.839Z,23.09
2022-08-28T06:42:17.158Z,23.17
2022-08-28T06:45:03.801Z,23.26
2022-08-28T06:47:34.775Z,23.35
2022-08-28T06:50:07.593Z,23.42
2022-08-28T06:52:46.454Z,23.49
2022-08-28T06:55:18.649Z,23.57
2022-08-28T06:57:52.707Z,23.66
2022-08-28T07:00:22.062Z,23.75
2022-08-28T07:02:53.281Z,23.81
2022-08-28T07:05:22.884Z,23.90
2022-08-28T07:07:55.493Z,23.98
2022-08-28T07:10:33.804Z,24.05
2022-08-28T07:13:04.992Z,24.15
2022-08-28T07:15:50.549Z,24.21
2022-08-28T07:18:33.492Z,24.28
2022-08-28T07:21:12.697Z,24.32
2022-08-28T07:23:42.969Z,24.37
2022-08-28T07:26:26.412Z,24.47
2022-08-28T07:29:00.645Z,24.54
2022-08-28T07:31:44.748Z,24.62
2022-08-28T07:34:17.646Z,24.70
2022-08-28T07:36:52.823Z,24.79
2022-08-28T07:39:24.407Z,24.86
2022-08-28T07:41:58.329Z,24.93
2022-08-28T07:44:51.955Z,25.00
2022-08-28T07:47:34.260Z,25.08
2022-08-28T07:50:03.670Z,25.16
2022-08-28T07:52:46.923Z,25.22
2022-08-28T07:55:15.679Z,25.30
2022-08-28T07:58:00.043Z,25.42
2022-08-28T08:00:34.176Z,25.51
2022-08-28T08:03:11.038Z,25.58
2022-08-28T08:05:59.881Z,25.66
2022-08-28T08:08:43.211Z,25.77
2022-08-28T08:11:23.991Z,25.85
2022-08-28T08:13:57.847Z,25.92
2022-08-28T08:16:38.852Z,26.02
2022-08-28T08:19:15.330Z,26.10
2022-08-28T08:21:54.855Z,26.19
2022-08-28T08:24:32.879Z,26.28
2022-08-28T08:27:07.629Z,26.39
2022-08-28T08:29:42.118Z,26.46
2022-08-28T08:32:17.349Z,26.52
2022-08-28T08:34:49.941Z,26.61
2022-08-28T08:37:24.152Z,26.67
2022-08-28T08:40:01.807Z,26.77
2022-08-28T08:42:40.884Z,26.90
2022-08-28T08:45:21.756Z,27.00
2022-08-28T08:47:56.049Z,27.07
2022-08-28T08:50:39.294Z,27.14
2022-08-28T08:53:48.212Z,27.23
2022-08-28T08:56:24.184Z,27.40
2022-08-28T08:59:10.469Z,27.52
2022-08-28T09:01:51.279Z,27.64
2022-08-28T09:04:35.267Z,27.72
2022-08-28T09:07:38.278Z,27.84
2022-08-28T09:10:29.198Z,27.99
2022-08-28T09:13:26.451Z,28.15
2022-08-28T09:16:06.004Z,28.30
2022-08-28T09:18:47.271Z,28.41
2022-08-28T09:21:29.585Z,28.47
2022-08-28T09:24:11.979Z,28.50
2022-08-28T09:26:52.430Z,28.58
2022-08-28T09:29:36.935Z,28.73
2022-08-28T09:32:33.877Z,28.86
2022-08-28T09:35:28.585Z,28.93
2022-08-28T09:38:23.209Z,29.04
2022-08-28T09:41:30.564Z,29.17
2022-08-28T09:43:59.729Z,29.32
2022-08-28T09:46:32.378Z,29.49
2022-08-28T09:49:14.919Z,29.62
2022-08-28T09:52:01.846Z,29.72
2022-08-28T09:54:45.688Z,29.85
2022-08-28T09:57:44.467Z,30.03
2022-08-28T10:00:20.833Z,30.19
2022-08-28T10:03:18.906Z,30.33
2022-08-28T10:06:15.957Z,30.56
2022-08-28T10:09:25.104Z,30.84
2022-08-28T10:12:18.940Z,31.06
2022-08-28T10:15:02.707Z,31.32
2022-08-28T10:18:10.511Z,31.56
2022-08-28T10:20:48.718Z,31.82
2022-08-28T10:23:44.437Z,32.08
2022-08-28T10:26:36.778Z,32.33
2022-08-28T10:29:35.776Z,32.52
2022-08-28T10:32:54.569Z,32.64
2022-08-28T10:35:54.756Z,32.90
2022-08-28T10:38:52.944Z,33.10
2022-08-28T10:41:29.001Z,33.23
2022-08-28T10:44:02.728Z,33.40
2022-08-28T10:46:41.766Z,33.57
2022-08-28T10:49:10.955Z,33.73
2022-08-28T10:52:07.465Z,33.92
2022-08-28T10:54:42.438Z,34.13
2022-08-28T10:57:41.578Z,34.28
2022-08-28T11:00:18.135Z,34.44
2022-08-28T11:03:22.278Z,34.49
2022-08-28T11:06:05.956Z,34.53
2022-08-28T11:08:38.118Z,34.64
2022-08-28T11:11:13.330Z,34.80
2022-08-28T11:14:00.037Z,34.97
2022-08-28T11:16:34.518Z,35.17
2022-08-28T11:19:34.080Z,35.34
2022-08-28T11:22:30.197Z,35.51
2022-08-28T11:25:26.509Z,35.76
2022-08-28T11:28:24.302Z,35.86
2022-08-28T11:30:58.563Z,35.94
2022-08-28T11:33:53.125Z,36.09
2022-08-28T11:36:23.972Z,36.20
2022-08-28T11:38:53.131Z,36.40
2022-08-28T11:41:30.462Z,36.38
2022-08-28T11:44:20.314Z,36.18
2022-08-28T11:46:51.931Z,36.07
2022-08-28T11:49:26.747Z,36.07
2022-08-28T11:52:16.030Z,36.13
2022-08-28T11:54:44.652Z,36.25
2022-08-28T11:57:28.696Z,36.41
2022-08-28T12:00:00.276Z,36.60
2022-08-28T12:02:41.078Z,36.66
2022-08-28T12:05:32.747Z,36.94
2022-08-28T12:08:05.321Z,36.97
2022-08-28T12:10:34.519Z,36.93
2022-08-28T12:13:09.196Z,36.96
2022-08-28T12:15:41.300Z,37.00
2022-08-28T12:18:09.998Z,37.00
2022-08-28T12:20:59.983Z,37.18
2022-08-28T12:23:35.237Z,37.39
2022-08-28T12:26:10.060Z,37.21
2022-08-28T12:28:52.878Z,36.79
2022-08-28T12:32:09.479Z,36.19
2022-08-28T12:34:50.270Z,35.53
2022-08-28T12:37:51.261Z,35.02
2022-08-28T12:40:29.195Z,34.91
2022-08-28T12:43:00.352Z,34.99
2022-08-28T12:45:32.505Z,35.07
2022-08-28T12:48:06.136Z,34.95
2022-08-28T12:50:38.594Z,34.72
2022-08-28T12:53:16.450Z,34.33
2022-08-28T12:55:46.833Z,33.88
2022-08-28T12:58:32.499Z,33.63
2022-08-28T13:01:23.966Z,33.58
2022-08-28T13:04:01.609Z,33.68
2022-08-28T13:06:35.978Z,33.95
2022-08-28T13:09:14.292Z,34.31
2022-08-28T13:11:51.567Z,34.64
2022-08-28T13:14:44.372Z,34.97
2022-08-28T13:17:17.744Z,35.20
2022-08-28T13:20:02.247Z,35.69
2022-08-28T13:22:34.802Z,36.03
2022-08-28T13:25:04.552Z,36.12
2022-08-28T13:27:34.404Z,35.97
2022-08-28T13:30:06.081Z,35.75
2022-08-28T13:32:39.635Z,36.04
2022-08-28T13:35:40.119Z,36.42
2022-08-28T13:38:14.094Z,36.42
2022-08-28T13:40:59.188Z,36.16
2022-08-28T13:43:42.016Z,35.54
2022-08-28T13:46:10.623Z,34.78
2022-08-28T13:48:51.505Z,34.04
2022-08-28T13:51:24.515Z,33.68
2022-08-28T13:53:53.869Z,33.20
2022-08-28T13:56:22.987Z,32.84
2022-08-28T13:58:57.709Z,32.48
2022-08-28T14:01:49.655Z,32.25
2022-08-28T14:04:18.214Z,32.00
2022-08-28T14:06:50.932Z,31.85
2022-08-28T14:09:20.524Z,31.98
2022-08-28T14:11:51.278Z,32.08
2022-08-28T14:14:34.445Z,32.17
2022-08-28T14:17:08.481Z,32.21
2022-08-28T14:19:38.195Z,32.16
2022-08-28T14:22:09.477Z,31.87
2022-08-28T14:24:44.118Z,31.60
2022-08-28T14:27:16.086Z,31.25
2022-08-28T14:29:44.789Z,30.83
2022-08-28T14:32:22.083Z,30.40
2022-08-28T14:34:56.158Z,30.21
2022-08-28T14:37:25.051Z,30.07
2022-08-28T14:39:56.877Z,29.94
2022-08-28T14:42:31.769Z,29.91
2022-08-28T14:45:04.049Z,29.83
2022-08-28T14:47:36.412Z,29.76
2022-08-28T14:50:08.306Z,29.62
2022-08-28T14:52:40.657Z,29.48
2022-08-28T14:55:11.152Z,29.46
2022-08-28T14:57:43.239Z,29.59
2022-08-28T15:00:24.017Z,29.69
2022-08-28T15:02:59.735Z,29.68
2022-08-28T15:05:29.618Z,29.59
2022-08-28T15:08:01.431Z,29.51
2022-08-28T15:10:32.574Z,29.55
2022-08-28T15:13:13.041Z,29.73
2022-08-28T15:15:50.524Z,29.92
2022-08-28T15:18:25.154Z,30.11
2022-08-28T15:21:00.032Z,30.32
2022-08-28T15:23:37.885Z,30.49
2022-08-28T15:26:15.534Z,30.57
2022-08-28T15:28:56.073Z,30.59
2022-08-28T15:31:25.267Z,30.56
2022-08-28T15:33:57.201Z,30.45
2022-08-28T15:36:26.578Z,30.38
2022-08-28T15:39:16.827Z,30.26
2022-08-28T15:41:47.118Z,29.96
2022-08-28T15:44:18.191Z,29.80
2022-08-28T15:47:06.372Z,29.58
2022-08-28T15:49:49.670Z,29.29
2022-08-28T15:52:26.908Z,29.07
2022-08-28T15:54:58.988Z,28.81
2022-08-28T15:57:31.031Z,28.61
2022-08-28T16:00:09.779Z,28.50
2022-08-28T16:02:44.877Z,28.38
2022-08-28T16:05:19.216Z,28.31
2022-08-28T16:07:57.438Z,28.27
2022-08-28T16:10:26.352Z,28.25
2022-08-28T16:12:57.440Z,28.15
2022-08-28T16:15:27.286Z,27.97
2022-08-28T16:17:59.254Z,27.77
2022-08-28T16:20:39.369Z,27.56
2022-08-28T16:23:11.978Z,27.39
2022-08-28T16:25:43.360Z,27.27
2022-08-28T16:28:14.837Z,27.14
2022-08-28T16:30:46.967Z,27.03
2022-08-28T16:33:21.161Z,26.90
2022-08-28T16:36:02.183Z,26.80
2022-08-28T16:38:35.326Z,26.61
2022-08-28T16:41:16.486Z,26.39
2022-08-28T16:44:05.567Z,26.19
2022-08-28T16:46:34.634Z,25.98
2022-08-28T16:49:06.467Z,25.79
2022-08-28T16:51:48.503Z,25.57
2022-08-28T16:54:24.991Z,25.37
2022-08-28T16:57:06.786Z,25.21
2022-08-28T16:59:53.149Z,25.04
2022-08-28T17:02:26.701Z,24.87
2022-08-28T17:05:00.590Z,24.73
2022-08-28T17:07:35.652Z,24.65
2022-08-28T17:10:09.254Z,24.54
2022-08-28T17:12:50.021Z,24.47
2022-08-28T17:15:31.523Z,24.37
2022-08-28T17:18:12.332Z,24.26
2022-08-28T17:21:06.333Z,24.16
2022-08-28T17:23:50.173Z,24.03
2022-08-28T17:26:22.341Z,23.94
2022-08-28T17:29:01.984Z,23.86
2022-08-28T17:31:51.392Z,23.72
2022-08-28T17:34:25.767Z,23.63
2022-08-28T17:37:07.363Z,23.57
2022-08-28T17:39:43.934Z,23.48
2022-08-28T17:42:39.756Z,23.41
2022-08-28T17:45:24.165Z,23.35
2022-08-28T17:48:05.496Z,23.29
2022-08-28T17:50:51.485Z,23.24
2022-08-28T17:53:46.998Z,23.15
2022-08-28T17:56:16.299Z,23.07
2022-08-28T17:58:45.710Z,23.00
2022-08-28T18:01:22.009Z,22.93
2022-08-28T18:03:53.126Z,22.87
2022-08-28T18:06:25.279Z,22.79
2022-08-28T18:08:54.680Z,22.66
2022-08-28T18:11:31.422Z,22.58
2022-08-28T18:14:20.455Z,22.56
2022-08-28T18:17:34.776Z,22.54
2022-08-28T18:20:12.469Z,22.53
2022-08-28T18:22:47.435Z,22.48
2022-08-28T18:25:40.591Z,22.42
2022-08-28T18:28:39.867Z,22.38
2022-08-28T18:31:38.591Z,22.29
2022-08-28T18:34:33.276Z,22.23
2022-08-28T18:37:12.611Z,22.21
2022-08-28T18:40:04.425Z,22.17
2022-08-28T18:42:41.872Z,22.14
2022-08-28T18:45:31.995Z,22.10
2022-08-28T18:48:46.772Z,22.05
2022-08-28T18:51:24.048Z,22.02
2022-08-28T18:54:01.726Z,21.94
2022-08-28T18:56:33.729Z,21.84
2022-08-28T18:59:10.482Z,21.81
2022-08-28T19:01:39.857Z,21.76
2022-08-28T19:04:20.104Z,21.72
2022-08-28T19:06:51.722Z,21.73
2022-08-28T19:09:46.708Z,21.74
2022-08-28T19:12:18.744Z,21.73
2022-08-28T19:15:18.389Z,21.74
2022-08-28T19:18:01.577Z,21.72
2022-08-28T19:20:39.089Z,21.68
2022-08-28T19:23:22.090Z,21.63
2022-08-28T19:26:01.179Z,21.60
2022-08-28T19:28:50.823Z,21.59
2022-08-28T19:31:31.095Z,21.56
2022-08-28T19:34:11.440Z,21.53
2022-08-28T19:36:48.181Z,21.53
2022-08-28T19:39:32.874Z,21.51
2022-08-28T19:42:17.974Z,21.45
2022-08-28T19:45:18.580Z,21.44
2022-08-28T19:47:47.981Z,21.45
2022-08-28T19:50:25.752Z,21.42
2022-08-28T19:53:06.537Z,21.34
2022-08-28T19:55:38.233Z,21.33
2022-08-28T19:58:12.544Z,21.33
2022-08-28T20:00:53.885Z,21.32
2022-08-28T20:03:30.689Z,21.32
2022-08-28T20:06:14.766Z,21.30
2022-08-28T20:08:50.020Z,21.30
2022-08-28T20:11:47.758Z,21.25
2022-08-28T20:14:47.686Z,21.26
2022-08-28T20:17:31.188Z,21.23
2022-08-28T20:20:08.569Z,21.21
2022-08-28T20:22:43.618Z,21.21
2022-08-28T20:25:36.781Z,21.19
2022-08-28T20:28:34.948Z,21.19
2022-08-28T20:31:36.504Z,21.18
2022-08-28T20:34:32.944Z,21.16
2022-08-28T20:37:11.399Z,21.14
2022-08-28T20:39:58.538Z,21.15
2022-08-28T20:42:35.987Z,21.12
2022-08-28T20:45:09.363Z,21.14
2022-08-28T20:47:44.935Z,21.12
2022-08-28T20:50:15.540Z,21.13
2022-08-28T20:52:48.139Z,21.12
2022-08-28T20:55:20.289Z,21.11
2022-08-28T20:57:52.543Z,21.12
2022-08-28T21:00:30.276Z,21.13
2022-08-28T21:03:02.372Z,21.14
2022-08-28T21:05:47.267Z,21.13
2022-08-28T21:08:18.017Z,21.12
2022-08-28T21:10:54.495Z,21.10
2022-08-28T21:13:39.862Z,21.10
2022-08-28T21:16:11.702Z,21.10
2022-08-28T21:18:59.284Z,21.10
2022-08-28T21:21:32.599Z,21.11
2022-08-28T21:24:03.467Z,21.11
2022-08-28T21:26:45.634Z,21.10
2022-08-28T21:29:25.430Z,21.07
2022-08-28T21:31:57.458Z,21.02
2022-08-28T21:34:36.523Z,21.04
2022-08-28T21:37:06.705Z,21.05
2022-08-28T21:39:51.001Z,21.04
2022-08-28T21:42:22.440Z,21.05
2022-08-28T21:44:54.687Z,21.03
2022-08-28T21:47:38.382Z,21.03
2022-08-28T21:50:18.342Z,21.04
2022-08-28T21:52:49.984Z,21.02
2022-08-28T21:55:18.648Z,21.04
2022-08-28T21:57:59.590Z,21.04
2022-08-28T22:00:33.839Z,21.02
2022-08-28T22:03:02.919Z,21.00
2022-08-28T22:05:37.317Z,20.95
2022-08-28T22:08:06.309Z,20.94
2022-08-28T22:10:40.483Z,20.90
2022-08-28T22:13:17.024Z,20.87
2022-08-28T22:15:54.007Z,20.85
2022-08-28T22:18:32.074Z,20.83
2022-08-28T22:21:25.277Z,20.83
2022-08-28T22:24:03.925Z,20.78
2022-08-28T22:26:35.679Z,20.74
2022-08-28T22:29:27.715Z,20.65
2022-08-28T22:31:56.760Z,20.57
2022-08-28T22:34:49.562Z,20.52
2022-08-28T22:37:18.283Z,20.46
2022-08-28T22:39:52.525Z,20.43
2022-08-28T22:42:21.312Z,20.37
2022-08-28T22:44:53.179Z,20.32
2022-08-28T22:47:21.975Z,20.31
2022-08-28T22:49:56.183Z,20.29
2022-08-28T22:52:33.020Z,20.26
2022-08-28T22:55:12.520Z,20.27
2022-08-28T22:57:44.983Z,20.28
2022-08-28T23:00:20.498Z,20.28
2022-08-28T23:02:58.394Z,20.26
2022-08-28T23:05:29.195Z,20.26
2022-08-28T23:07:57.847Z,20.22
2022-08-28T23:10:55.588Z,20.19
2022-08-28T23:13:45.388Z,20.20
2022-08-28T23:16:24.263Z,20.19
2022-08-28T23:19:09.036Z,20.16
2022-08-28T23:21:44.017Z,20.15
2022-08-28T23:24:25.449Z,20.13
2022-08-28T23:27:35.745Z,20.14
2022-08-28T23:30:20.989Z,20.18
2022-08-28T23:33:04.178Z,20.18
2022-08-28T23:35:43.766Z,20.18
2022-08-28T23:38:45.251Z,20.20
2022-08-28T23:41:32.065Z,20.20
2022-08-28T23:44:12.217Z,20.18
2022-08-28T23:46:46.858Z,20.15
2022-08-28T23:49:26.243Z,20.17
2022-08-28T23:52:07.723Z,20.19
2022-08-28T23:54:46.821Z,20.19
2022-08-28T23:57:18.755Z,20.11
2022-08-28T23:59:54.374Z,19.98
